createdAt,value
2018-11-13T00:00:54.456Z,9.60
2018-11-13T00:03:24.612Z,9.60
2018-11-13T00:05:54.756Z,9.60
2018-11-13T00:08:24.926Z,9.60
2018-11-13T00:10:55.162Z,9.50
2018-11-13T00:13:25.341Z,9.50
2018-11-13T00:15:55.682Z,9.50
2018-11-13T00:18:26.197Z,9.50
2018-11-13T00:20:56.436Z,9.60
2018-11-13T00:23:26.659Z,9.60
2018-11-13T00:25:56.942Z,9.60
2018-11-13T00:28:27.215Z,9.60
2018-11-13T00:30:57.438Z,9.50
2018-11-13T00:33:27.641Z,9.50
2018-11-13T00:35:57.798Z,9.40
2018-11-13T00:38:28.522Z,9.40
2018-11-13T00:40:58.593Z,9.40
2018-11-13T00:43:28.793Z,9.40
2018-11-13T00:45:59.050Z,9.40
2018-11-13T00:48:29.200Z,9.40
2018-11-13T00:50:59.901Z,9.30
2018-11-13T00:53:30.120Z,9.30
2018-11-13T00:56:00.216Z,9.30
2018-11-13T00:58:30.362Z,9.30
2018-11-13T01:01:00.552Z,9.20
2018-11-13T01:03:30.733Z,9.20
2018-11-13T01:06:01.949Z,9.20
2018-11-13T01:08:32.261Z,9.30
2018-11-13T01:11:02.470Z,9.40
2018-11-13T01:13:32.754Z,9.40
2018-11-13T01:16:02.904Z,9.30
2018-11-13T01:18:33.037Z,9.30
2018-11-13T01:21:04.440Z,9.20
2018-11-13T01:23:35.473Z,9.20
2018-11-13T01:26:06.085Z,9.20
2018-11-13T01:28:36.362Z,9.10
2018-11-13T01:31:06.845Z,9.10
2018-11-13T01:33:36.999Z,9.10
2018-11-13T01:36:07.247Z,9.10
2018-11-13T01:38:37.519Z,9.00
2018-11-13T01:41:07.717Z,9.00
2018-11-13T01:43:37.956Z,9.00
2018-11-13T01:46:08.251Z,9.00
2018-11-13T01:48:38.411Z,9.00
2018-11-13T01:51:08.604Z,9.00
2018-11-13T01:53:38.757Z,9.00
2018-11-13T01:56:09.043Z,9.10
2018-11-13T01:58:39.204Z,9.20
2018-11-13T02:01:09.388Z,9.20
2018-11-13T02:03:40.929Z,9.10
2018-11-13T02:06:12.466Z,9.10
2018-11-13T02:08:43.078Z,9.20
2018-11-13T02:11:13.281Z,9.30
2018-11-13T02:13:43.430Z,9.30
2018-11-13T02:16:13.714Z,9.30
2018-11-13T02:18:44.000Z,9.30
2018-11-13T02:21:14.164Z,9.30
2018-11-13T02:23:44.473Z,9.30
2018-11-13T02:26:14.674Z,9.30
2018-11-13T02:28:44.931Z,9.30
2018-11-13T02:31:15.167Z,9.30
2018-11-13T02:33:45.329Z,9.30
2018-11-13T02:36:15.611Z,9.30
2018-11-13T02:38:45.798Z,9.30
2018-11-13T02:41:16.064Z,9.30
2018-11-13T02:43:46.239Z,9.30
2018-11-13T02:46:17.534Z,9.30
2018-11-13T02:48:47.676Z,9.30
2018-11-13T02:51:17.921Z,9.30
2018-11-13T02:53:49.179Z,9.40
2018-11-13T02:56:19.562Z,9.40
2018-11-13T02:58:50.043Z,9.40
2018-11-13T03:01:20.306Z,9.40
2018-11-13T03:03:50.681Z,9.30
2018-11-13T03:06:20.862Z,9.40
2018-11-13T03:08:51.090Z,9.30
2018-11-13T03:11:21.464Z,9.40
2018-11-13T03:13:51.936Z,9.30
2018-11-13T03:16:22.417Z,9.20
2018-11-13T03:18:52.721Z,9.20
2018-11-13T03:21:23.031Z,9.20
2018-11-13T03:23:53.288Z,9.30
2018-11-13T03:26:23.535Z,9.30
2018-11-13T03:28:53.896Z,9.20
2018-11-13T03:31:26.869Z,9.20
2018-11-13T03:33:57.506Z,9.30
2018-11-13T03:36:27.739Z,9.40
2018-11-13T03:38:57.865Z,9.50
2018-11-13T03:41:28.109Z,9.50
2018-11-13T03:43:58.618Z,9.50
2018-11-13T03:46:28.793Z,9.60
2018-11-13T03:49:01.990Z,9.60
2018-11-13T03:51:32.367Z,9.70
2018-11-13T03:54:02.586Z,9.70
2018-11-13T03:56:32.719Z,9.80
2018-11-13T03:59:02.852Z,9.80
2018-11-13T04:01:32.949Z,9.80
2018-11-13T04:04:07.153Z,9.90
2018-11-13T04:06:37.287Z,9.90
2018-11-13T04:09:11.400Z,9.90
2018-11-13T04:11:41.661Z,9.90
2018-11-13T04:14:15.185Z,9.90
2018-11-13T04:16:45.288Z,9.90
2018-11-13T04:19:15.477Z,9.80
2018-11-13T04:21:49.626Z,10.00
2018-11-13T04:24:19.897Z,10.00
2018-11-13T04:26:50.035Z,10.10
2018-11-13T04:29:21.488Z,10.00
2018-11-13T04:31:51.627Z,10.10
2018-11-13T04:34:21.803Z,10.00
2018-11-13T04:36:52.085Z,10.00
2018-11-13T04:39:22.264Z,10.00
2018-11-13T04:41:52.469Z,10.00
2018-11-13T04:44:22.631Z,10.00
2018-11-13T04:46:53.281Z,10.00
2018-11-13T04:49:23.723Z,9.90
2018-11-13T04:51:53.872Z,9.90
2018-11-13T04:54:24.115Z,9.90
2018-11-13T04:56:54.246Z,9.90
2018-11-13T04:59:24.411Z,10.00
2018-11-13T05:01:54.603Z,10.00
2018-11-13T05:04:24.905Z,9.90
2018-11-13T05:06:55.198Z,9.90
2018-11-13T05:09:25.400Z,9.80
2018-11-13T05:11:55.522Z,9.90
2018-11-13T05:14:26.144Z,9.90
2018-11-13T05:16:56.362Z,9.90
2018-11-13T05:19:26.616Z,9.90
2018-11-13T05:21:56.683Z,9.90
2018-11-13T05:24:26.954Z,9.80
2018-11-13T05:26:57.062Z,9.90
2018-11-13T05:29:27.247Z,9.80
2018-11-13T05:31:57.419Z,9.70
2018-11-13T05:34:27.554Z,9.60
2018-11-13T05:36:57.716Z,9.60
2018-11-13T05:39:28.042Z,9.50
2018-11-13T05:41:58.095Z,9.50
2018-11-13T05:44:28.227Z,9.50
2018-11-13T05:46:58.419Z,9.50
2018-11-13T05:49:28.556Z,9.40
2018-11-13T05:51:58.682Z,9.30
2018-11-13T05:54:28.865Z,9.30
2018-11-13T05:56:59.088Z,9.20
2018-11-13T05:59:41.201Z,9.20
2018-11-13T06:02:11.371Z,9.10
2018-11-13T06:04:41.639Z,9.10
2018-11-13T06:07:11.860Z,9.10
2018-11-13T06:09:42.041Z,9.00
2018-11-13T06:12:12.217Z,9.00
2018-11-13T06:14:42.357Z,9.00
2018-11-13T06:17:12.490Z,9.00
2018-11-13T06:19:42.718Z,9.00
2018-11-13T06:22:12.892Z,9.00
2018-11-13T06:24:43.118Z,8.90
2018-11-13T06:27:13.287Z,8.90
2018-11-13T06:29:43.571Z,8.90
2018-11-13T06:32:13.726Z,8.80
2018-11-13T06:34:44.171Z,8.90
2018-11-13T06:37:14.387Z,8.80
2018-11-13T06:39:44.467Z,8.90
2018-11-13T06:42:14.613Z,8.90
2018-11-13T06:44:44.904Z,8.90
2018-11-13T06:47:15.034Z,9.00
2018-11-13T06:49:45.189Z,9.00
2018-11-13T06:52:16.165Z,9.00
2018-11-13T06:55:10.208Z,9.00
2018-11-13T06:57:40.525Z,9.10
2018-11-13T07:00:11.647Z,9.20
2018-11-13T07:02:42.021Z,9.30
2018-11-13T07:05:15.648Z,9.40
2018-11-13T07:07:46.409Z,9.60
2018-11-13T07:10:20.639Z,9.70
2018-11-13T07:12:51.731Z,9.90
2018-11-13T07:15:24.050Z,10.00
2018-11-13T07:17:56.470Z,10.10
2018-11-13T07:20:27.867Z,10.20
2018-11-13T07:22:58.089Z,10.20
2018-11-13T07:25:28.416Z,10.30
2018-11-13T07:27:58.573Z,10.40
2018-11-13T07:30:29.020Z,10.40
2018-11-13T07:32:59.209Z,10.50
2018-11-13T07:35:29.410Z,10.60
2018-11-13T07:38:00.438Z,10.60
2018-11-13T07:40:30.642Z,10.60
2018-11-13T07:43:00.800Z,10.60
2018-11-13T07:45:31.021Z,10.60
2018-11-13T07:48:01.530Z,10.50
2018-11-13T07:50:31.896Z,10.50
2018-11-13T07:53:02.041Z,10.50
2018-11-13T07:55:32.193Z,10.40
2018-11-13T07:58:02.377Z,10.40
2018-11-13T08:00:32.641Z,10.40
2018-11-13T08:03:30.617Z,10.40
2018-11-13T08:06:01.365Z,10.40
2018-11-13T08:08:31.561Z,10.20
2018-11-13T08:11:03.073Z,10.20
2018-11-13T08:13:34.237Z,10.10
2018-11-13T08:16:04.396Z,10.10
2018-11-13T08:18:34.687Z,10.10
2018-11-13T08:21:05.063Z,10.10
2018-11-13T08:23:35.171Z,10.20
2018-11-13T08:26:05.413Z,10.60
2018-11-13T08:28:35.573Z,10.90
2018-11-13T08:31:06.557Z,11.20
2018-11-13T08:33:36.903Z,11.40
2018-11-13T08:36:07.251Z,11.50
2018-11-13T08:38:37.404Z,11.40
2018-11-13T08:41:08.578Z,11.50
2018-11-13T08:43:38.750Z,11.50
2018-11-13T08:46:09.034Z,11.50
2018-11-13T08:48:39.152Z,11.50
2018-11-13T08:51:09.299Z,11.40
2018-11-13T08:53:39.401Z,11.40
2018-11-13T08:56:09.981Z,11.50
2018-11-13T08:58:40.190Z,11.50
2018-11-13T09:01:10.373Z,11.50
2018-11-13T09:03:40.622Z,11.40
2018-11-13T09:06:10.772Z,11.50
2018-11-13T09:08:40.872Z,11.50
2018-11-13T09:11:11.067Z,11.50
2018-11-13T09:13:41.355Z,11.70
2018-11-13T09:16:11.518Z,11.70
2018-11-13T09:18:41.656Z,11.90
2018-11-13T09:21:11.835Z,11.90
2018-11-13T09:23:41.922Z,12.10
2018-11-13T09:26:12.076Z,12.20
2018-11-13T09:28:42.176Z,12.10
2018-11-13T09:31:12.403Z,12.00
2018-11-13T09:33:42.489Z,12.00
2018-11-13T09:36:12.642Z,12.00
2018-11-13T09:38:42.828Z,12.00
2018-11-13T09:41:13.103Z,12.20
2018-11-13T09:43:43.229Z,12.30
2018-11-13T09:46:13.741Z,12.50
2018-11-13T09:48:43.913Z,12.80
2018-11-13T09:51:14.079Z,12.90
2018-11-13T09:53:44.338Z,13.10
2018-11-13T09:56:14.637Z,13.20
2018-11-13T09:58:44.783Z,13.10
2018-11-13T10:01:15.123Z,13.00
2018-11-13T10:03:45.687Z,13.00
2018-11-13T10:06:15.112Z,13.00
2018-11-13T10:08:45.209Z,13.10
2018-11-13T10:11:22.498Z,13.10
2018-11-13T10:13:53.086Z,13.10
2018-11-13T10:16:24.120Z,13.00
2018-11-13T10:18:55.511Z,12.90
2018-11-13T10:21:25.667Z,12.80
2018-11-13T10:23:56.060Z,12.60
2018-11-13T10:26:26.296Z,12.60
2018-11-13T10:28:57.372Z,12.50
2018-11-13T10:31:27.554Z,12.50
2018-11-13T10:33:58.902Z,12.50
2018-11-13T10:36:32.630Z,12.60
2018-11-13T10:39:02.779Z,12.70
2018-11-13T10:41:32.959Z,12.80
2018-11-13T10:44:03.067Z,12.80
2018-11-13T10:46:33.247Z,12.70
2018-11-13T10:49:03.407Z,12.60
2018-11-13T10:51:33.601Z,12.60
2018-11-13T10:54:03.781Z,12.60
2018-11-13T10:56:34.032Z,12.80
2018-11-13T10:59:04.115Z,13.00
2018-11-13T11:02:37.109Z,13.10
2018-11-13T11:05:10.280Z,13.10
2018-11-13T11:07:40.503Z,13.10
2018-11-13T11:10:10.851Z,13.00
2018-11-13T11:12:41.256Z,13.00
2018-11-13T11:15:15.416Z,13.00
2018-11-13T11:17:48.278Z,12.90
2018-11-13T11:20:18.564Z,12.80
2018-11-13T11:22:48.907Z,12.80
2018-11-13T11:25:19.313Z,12.70
2018-11-13T11:27:49.430Z,12.60
2018-11-13T11:30:19.716Z,12.70
2018-11-13T11:32:51.027Z,12.80
2018-11-13T11:35:21.211Z,12.90
2018-11-13T11:37:51.372Z,12.90
2018-11-13T11:40:21.672Z,13.00
2018-11-13T11:42:52.014Z,12.90
2018-11-13T11:45:22.118Z,12.90
2018-11-13T11:47:52.395Z,12.90
2018-11-13T11:50:22.866Z,12.90
2018-11-13T11:52:53.283Z,13.10
2018-11-13T11:55:23.617Z,13.20
2018-11-13T11:57:53.937Z,13.00
2018-11-13T12:00:30.583Z,12.90
2018-11-13T12:03:00.862Z,13.00
2018-11-13T12:05:31.117Z,12.90
2018-11-13T12:08:01.386Z,12.90
2018-11-13T12:10:31.697Z,12.90
2018-11-13T12:13:02.094Z,12.90
2018-11-13T12:15:32.607Z,12.90
2018-11-13T12:18:03.199Z,13.00
2018-11-13T12:20:33.416Z,13.10
2018-11-13T12:23:03.739Z,13.10
2018-11-13T12:25:33.884Z,13.00
2018-11-13T12:28:04.393Z,13.10
2018-11-13T12:30:34.618Z,13.10
2018-11-13T12:33:05.135Z,13.20
2018-11-13T12:35:35.283Z,13.30
2018-11-13T12:38:06.444Z,13.40
2018-11-13T12:40:36.745Z,13.40
2018-11-13T12:43:07.714Z,13.30
2018-11-13T12:45:37.862Z,13.20
2018-11-13T12:48:08.701Z,13.20
2018-11-13T12:50:43.918Z,13.20
2018-11-13T12:53:14.140Z,13.30
2018-11-13T12:55:44.410Z,13.50
2018-11-13T12:58:15.383Z,13.50
2018-11-13T13:00:45.587Z,13.60
2018-11-13T13:03:15.816Z,13.60
2018-11-13T13:05:46.055Z,13.70
2018-11-13T13:08:16.243Z,13.80
2018-11-13T13:10:46.602Z,13.80
2018-11-13T13:13:17.608Z,13.80
2018-11-13T13:15:47.966Z,13.80
2018-11-13T13:18:18.179Z,13.90
2018-11-13T13:20:48.372Z,13.80
2018-11-13T13:23:20.302Z,13.70
2018-11-13T13:25:50.520Z,13.60
2018-11-13T13:28:20.713Z,13.60
2018-11-13T13:30:51.097Z,13.60
2018-11-13T13:33:21.370Z,13.50
2018-11-13T13:35:57.435Z,13.50
2018-11-13T13:38:27.617Z,13.40
2018-11-13T13:40:59.018Z,13.40
2018-11-13T13:43:30.086Z,13.20
2018-11-13T13:46:00.429Z,13.10
2018-11-13T13:48:30.740Z,13.00
2018-11-13T13:51:01.090Z,13.00
2018-11-13T13:53:31.368Z,12.90
2018-11-13T13:56:01.574Z,12.80
2018-11-13T13:58:31.935Z,12.60
2018-11-13T14:01:02.225Z,12.70
2018-11-13T14:03:32.448Z,12.80
2018-11-13T14:06:03.267Z,12.80
2018-11-13T14:08:33.561Z,12.70
2018-11-13T14:11:03.783Z,12.70
2018-11-13T14:13:33.957Z,12.70
2018-11-13T14:16:04.149Z,12.80
2018-11-13T14:18:34.447Z,12.70
2018-11-13T14:21:04.768Z,12.70
2018-11-13T14:23:35.161Z,12.60
2018-11-13T14:26:11.813Z,12.50
2018-11-13T14:28:42.231Z,12.40
2018-11-13T14:31:13.732Z,12.30
2018-11-13T14:33:43.982Z,12.20
2018-11-13T14:36:14.839Z,12.10
2018-11-13T14:38:45.250Z,12.10
2018-11-13T14:41:16.567Z,12.00
2018-11-13T14:43:46.825Z,12.00
2018-11-13T14:46:17.378Z,12.00
2018-11-13T14:48:47.591Z,12.10
2018-11-13T14:51:18.294Z,12.10
2018-11-13T14:53:48.487Z,12.10
2018-11-13T14:56:18.659Z,12.10
2018-11-13T14:58:49.033Z,12.10
2018-11-13T15:01:19.436Z,12.10
2018-11-13T15:03:49.821Z,12.20
2018-11-13T15:06:20.031Z,12.20
2018-11-13T15:08:50.256Z,12.20
2018-11-13T15:11:22.493Z,12.20
2018-11-13T15:13:52.875Z,12.20
2018-11-13T15:16:23.044Z,12.20
2018-11-13T15:18:53.287Z,12.20
2018-11-13T15:21:23.483Z,12.10
2018-11-13T15:23:53.818Z,12.10
2018-11-13T15:26:24.104Z,12.00
2018-11-13T15:28:54.430Z,12.00
2018-11-13T15:31:24.633Z,12.00
2018-11-13T15:33:55.069Z,12.00
2018-11-13T15:36:25.330Z,12.10
2018-11-13T15:38:55.515Z,12.00
2018-11-13T15:41:25.655Z,12.00
2018-11-13T15:43:55.812Z,12.00
2018-11-13T15:46:25.949Z,12.00
2018-11-13T15:48:56.087Z,12.00
2018-11-13T15:51:26.258Z,11.90
2018-11-13T15:53:56.378Z,11.80
2018-11-13T15:56:26.751Z,11.80
2018-11-13T15:58:56.972Z,11.60
2018-11-13T16:01:27.108Z,11.50
2018-11-13T16:03:57.286Z,11.50
2018-11-13T16:06:27.558Z,11.50
2018-11-13T16:08:57.779Z,11.40
2018-11-13T16:11:27.893Z,11.30
2018-11-13T16:13:58.062Z,11.30
2018-11-13T16:16:28.198Z,11.20
2018-11-13T16:18:58.409Z,11.10
2018-11-13T16:21:28.654Z,11.00
2018-11-13T16:23:58.867Z,10.90
2018-11-13T16:26:29.208Z,10.80
2018-11-13T16:28:59.345Z,10.70
2018-11-13T16:31:29.507Z,10.60
2018-11-13T16:33:59.767Z,10.60
2018-11-13T16:36:29.942Z,10.60
2018-11-13T16:39:00.145Z,10.50
2018-11-13T16:41:30.298Z,10.50
2018-11-13T16:44:00.421Z,10.40
2018-11-13T16:46:30.708Z,10.30
2018-11-13T16:49:00.930Z,10.40
2018-11-13T16:51:31.139Z,10.30
2018-11-13T16:54:03.320Z,10.20
2018-11-13T16:56:37.552Z,10.20
2018-11-13T16:59:07.910Z,10.20
2018-11-13T17:01:38.155Z,10.20
2018-11-13T17:04:08.361Z,10.20
2018-11-13T17:06:38.593Z,10.20
2018-11-13T17:09:11.608Z,10.20
2018-11-13T17:11:41.867Z,10.10
2018-11-13T17:14:12.072Z,10.20
2018-11-13T17:16:42.245Z,10.20
2018-11-13T17:19:12.435Z,10.20
2018-11-13T17:21:42.666Z,10.10
2018-11-13T17:24:12.837Z,10.10
2018-11-13T17:26:42.945Z,10.10
2018-11-13T17:29:13.121Z,10.00
2018-11-13T17:31:43.188Z,9.80
2018-11-13T17:34:13.635Z,9.80
2018-11-13T17:36:43.816Z,9.70
2018-11-13T17:39:15.162Z,9.60
2018-11-13T17:41:45.617Z,9.60
2018-11-13T17:44:15.806Z,9.50
2018-11-13T17:46:46.108Z,9.30
2018-11-13T17:49:16.592Z,9.20
2018-11-13T17:51:46.797Z,9.20
2018-11-13T17:54:17.977Z,9.20
2018-11-13T17:56:48.413Z,9.20
2018-11-13T17:59:18.982Z,9.10
2018-11-13T18:01:49.192Z,9.00
2018-11-13T18:04:19.517Z,9.00
2018-11-13T18:06:49.742Z,8.90
2018-11-13T18:09:20.008Z,8.70
2018-11-13T18:11:50.217Z,8.70
2018-11-13T18:14:20.592Z,8.70
2018-11-13T18:16:50.773Z,8.80
2018-11-13T18:19:25.821Z,8.80
2018-11-13T18:21:56.115Z,8.80
2018-11-13T18:24:33.338Z,8.80
2018-11-13T18:27:03.965Z,8.70
2018-11-13T18:29:34.220Z,8.80
2018-11-13T18:32:04.418Z,8.80
2018-11-13T18:34:34.568Z,8.70
2018-11-13T18:37:04.727Z,8.70
2018-11-13T18:39:40.486Z,8.70
2018-11-13T18:42:11.085Z,8.60
2018-11-13T18:44:41.276Z,8.60
2018-11-13T18:47:14.491Z,8.60
2018-11-13T18:49:48.777Z,8.50
2018-11-13T18:52:19.048Z,8.50
2018-11-13T18:54:49.239Z,8.60
2018-11-13T18:57:19.512Z,8.60
2018-11-13T18:59:49.666Z,8.60
2018-11-13T19:02:19.781Z,8.60
2018-11-13T19:04:49.966Z,8.50
2018-11-13T19:07:20.201Z,8.50
2018-11-13T19:09:50.326Z,8.50
2018-11-13T19:12:20.497Z,8.40
2018-11-13T19:14:50.736Z,8.40
2018-11-13T19:17:20.891Z,8.40
2018-11-13T19:19:51.203Z,8.30
2018-11-13T19:22:21.224Z,8.20
2018-11-13T19:24:51.393Z,8.30
2018-11-13T19:27:21.496Z,8.30
2018-11-13T19:29:51.708Z,8.30
2018-11-13T19:32:21.756Z,8.20
2018-11-13T19:34:52.177Z,8.10
2018-11-13T19:37:22.427Z,8.10
2018-11-13T19:39:52.622Z,8.20
2018-11-13T19:42:22.714Z,8.20
2018-11-13T19:44:52.958Z,8.20
2018-11-13T19:47:23.112Z,8.20
2018-11-13T19:49:53.301Z,8.20
2018-11-13T19:52:23.402Z,8.10
2018-11-13T19:54:53.495Z,8.10
2018-11-13T19:57:23.598Z,8.00
2018-11-13T19:59:53.710Z,8.00
2018-11-13T20:02:23.763Z,7.90
2018-11-13T20:04:53.996Z,8.00
2018-11-13T20:07:24.102Z,8.00
2018-11-13T20:09:54.266Z,7.90
2018-11-13T20:12:24.462Z,8.00
2018-11-13T20:14:54.547Z,8.10
2018-11-13T20:17:24.797Z,8.20
2018-11-13T20:19:54.973Z,8.20
2018-11-13T20:22:25.129Z,8.20
2018-11-13T20:24:55.269Z,8.20
2018-11-13T20:27:25.370Z,8.20
2018-11-13T20:29:55.492Z,8.10
2018-11-13T20:32:25.618Z,8.00
2018-11-13T20:34:55.729Z,8.00
2018-11-13T20:37:25.830Z,7.90
2018-11-13T20:39:55.927Z,7.80
2018-11-13T20:42:26.061Z,7.80
2018-11-13T20:44:56.240Z,7.70
2018-11-13T20:47:26.309Z,7.70
2018-11-13T20:49:56.456Z,7.70
2018-11-13T20:52:27.036Z,7.80
2018-11-13T20:54:57.489Z,7.80
2018-11-13T20:57:27.762Z,7.80
2018-11-13T20:59:58.101Z,7.90
2018-11-13T21:02:28.274Z,7.80
2018-11-13T21:04:58.417Z,7.90
2018-11-13T21:07:28.583Z,7.80
2018-11-13T21:09:58.718Z,7.80
2018-11-13T21:12:28.850Z,7.70
2018-11-13T21:14:59.104Z,7.60
2018-11-13T21:17:29.385Z,7.60
2018-11-13T21:19:59.447Z,7.60
2018-11-13T21:22:29.573Z,7.50
2018-11-13T21:24:59.735Z,7.50
2018-11-13T21:27:29.951Z,7.50
2018-11-13T21:30:00.162Z,7.40
2018-11-13T21:32:30.167Z,7.40
2018-11-13T21:35:00.322Z,7.40
2018-11-13T21:37:30.375Z,7.40
2018-11-13T21:40:00.637Z,7.40
2018-11-13T21:42:30.869Z,7.50
2018-11-13T21:45:01.032Z,7.50
2018-11-13T21:47:32.201Z,7.50
2018-11-13T21:50:02.629Z,7.40
2018-11-13T21:52:32.792Z,7.40
2018-11-13T21:55:03.033Z,7.30
2018-11-13T21:57:33.114Z,7.30
2018-11-13T22:00:03.417Z,7.10
2018-11-13T22:02:33.706Z,7.10
2018-11-13T22:05:04.040Z,7.00
2018-11-13T22:07:34.293Z,7.00
2018-11-13T22:10:04.739Z,6.90
2018-11-13T22:12:35.027Z,6.90
2018-11-13T22:15:06.481Z,6.80
2018-11-13T22:17:36.796Z,6.70
2018-11-13T22:20:08.378Z,6.70
2018-11-13T22:22:38.879Z,6.70
2018-11-13T22:25:15.141Z,6.70
2018-11-13T22:27:46.466Z,6.70
2018-11-13T22:30:18.442Z,6.60
2018-11-13T22:32:49.007Z,6.70
2018-11-13T22:35:20.014Z,6.60
2018-11-13T22:37:50.335Z,6.60
2018-11-13T22:40:22.522Z,6.60
2018-11-13T22:42:52.906Z,6.60
2018-11-13T22:45:24.437Z,6.60
2018-11-13T22:47:54.968Z,6.60
2018-11-13T22:50:26.436Z,6.60
2018-11-13T22:52:56.665Z,6.70
2018-11-13T22:55:26.809Z,6.80
2018-11-13T22:57:58.186Z,6.80
2018-11-13T23:00:39.844Z,6.80
2018-11-13T23:03:12.044Z,6.90
2018-11-13T23:05:43.038Z,7.00
2018-11-13T23:08:14.669Z,7.00
2018-11-13T23:10:45.045Z,7.00
2018-11-13T23:13:15.269Z,7.00
2018-11-13T23:15:45.387Z,7.00
2018-11-13T23:18:16.540Z,6.90
2018-11-13T23:20:46.703Z,6.90
2018-11-13T23:23:16.782Z,6.80
2018-11-13T23:25:47.012Z,6.70
2018-11-13T23:28:17.267Z,6.60
2018-11-13T23:30:47.450Z,6.50
2018-11-13T23:33:17.674Z,6.50
2018-11-13T23:35:47.857Z,6.50
2018-11-13T23:38:18.008Z,6.40
2018-11-13T23:40:48.138Z,6.40
2018-11-13T23:43:18.409Z,6.30
2018-11-13T23:45:48.617Z,6.30
2018-11-13T23:48:18.695Z,6.30
2018-11-13T23:50:48.905Z,6.30
2018-11-13T23:53:19.082Z,6.40
2018-11-13T23:55:49.266Z,6.50
2018-11-13T23:58:19.519Z,6.50
